Time;durP1;ratioP1;P1;durP2;ratioP2;P2;SDS_P1;SDS_P2;PMS_P1;PMS_P2;Temp;Humidity;BMP_temperature;BMP_pressure;BME280_temperature;BME280_humidity;BME280_pressure;Samples;Min_cycle;Max_cycle;Signal;HPM_P1;HPM_P2
2023/12/13 00:01:38;;;;;;;24.02;13.55;;;7.90;99.90;;;;;;5050042;28;20048;-76
2023/12/13 00:04:04;;;;;;;25.25;14.38;;;8.10;99.90;;;;;;5050649;28;20045;-77
2023/12/13 00:06:30;;;;;;;25.63;12.88;;;7.80;99.90;;;;;;5050627;28;20033;-76
2023/12/13 00:08:56;;;;;;;24.85;14.45;;;7.70;99.90;;;;;;5050249;28;20518;-75
2023/12/13 00:11:21;;;;;;;21.70;12.80;;;7.70;99.90;;;;;;5050289;28;20041;-76
2023/12/13 00:13:47;;;;;;;23.33;12.50;;;7.70;99.90;;;;;;5050320;28;20037;-76
2023/12/13 00:16:13;;;;;;;20.77;11.95;;;7.60;99.90;;;;;;5042805;28;20407;-76
2023/12/13 00:18:39;;;;;;;19.35;12.43;;;7.60;99.90;;;;;;5026752;28;20050;-77
2023/12/13 00:21:05;;;;;;;20.90;12.32;;;7.70;99.90;;;;;;5038573;28;20064;-75
2023/12/13 00:23:30;;;;;;;24.40;11.77;;;7.60;99.90;;;;;;5029070;28;20052;-76
2023/12/13 00:25:56;;;;;;;18.00;11.18;;;7.50;99.90;;;;;;5044701;28;20055;-76
2023/12/13 00:28:22;;;;;;;21.13;11.20;;;7.70;99.90;;;;;;5023153;28;20111;-76
2023/12/13 00:30:47;;;;;;;19.20;10.93;;;7.50;99.90;;;;;;5041788;28;20094;-76
2023/12/13 00:33:13;;;;;;;18.10;10.57;;;7.60;99.90;;;;;;5041268;28;20068;-76
2023/12/13 00:35:38;;;;;;;19.02;10.35;;;7.50;99.90;;;;;;5038683;28;20518;-76
2023/12/13 00:38:04;;;;;;;19.10;10.68;;;7.60;99.90;;;;;;5038549;28;20049;-79
2023/12/13 00:40:30;;;;;;;15.70;9.90;;;7.60;99.90;;;;;;5038858;28;20408;-76
2023/12/13 00:42:56;;;;;;;16.80;10.27;;;7.60;99.90;;;;;;5041341;28;20083;-75
2023/12/13 00:45:22;;;;;;;18.80;10.05;;;7.60;99.90;;;;;;5041381;28;20056;-75
2023/12/13 00:47:48;;;;;;;17.20;9.93;;;7.50;99.90;;;;;;5047374;28;20044;-76
2023/12/13 00:50:13;;;;;;;14.60;9.13;;;7.50;99.90;;;;;;5038135;28;20057;-76
2023/12/13 00:52:39;;;;;;;16.70;9.68;;;7.50;99.90;;;;;;5038132;28;20487;-76
2023/12/13 00:55:06;;;;;;;16.00;8.60;;;7.30;99.90;;;;;;5023242;28;20045;-76
2023/12/13 00:57:32;;;;;;;14.95;8.43;;;7.50;99.90;;;;;;5041144;28;20087;-76
2023/12/13 00:59:58;;;;;;;13.60;8.35;;;7.80;99.90;;;;;;5039256;28;20041;-76
2023/12/13 01:02:24;;;;;;;15.27;9.15;;;7.50;99.90;;;;;;5038513;28;20052;-75
2023/12/13 01:04:50;;;;;;;15.63;9.00;;;8.00;99.90;;;;;;5020048;28;20438;-76
2023/12/13 01:07:16;;;;;;;15.13;8.75;;;8.00;99.90;;;;;;5041307;28;20098;-75
2023/12/13 01:09:41;;;;;;;14.52;8.57;;;7.50;99.90;;;;;;5041244;28;20037;-76
2023/12/13 01:12:07;;;;;;;15.35;9.07;;;8.10;99.90;;;;;;5039545;28;20114;-76
2023/12/13 01:14:33;;;;;;;18.75;9.45;;;7.40;99.90;;;;;;5037660;28;20396;-78
2023/12/13 01:16:59;;;;;;;19.20;9.55;;;8.00;99.90;;;;;;5045634;28;20041;-77
2023/12/13 01:19:25;;;;;;;17.25;9.25;;;7.70;99.90;;;;;;5049187;28;20048;-75
2023/12/13 01:21:51;;;;;;;21.48;10.68;;;7.50;99.90;;;;;;5049369;28;20040;-75
2023/12/13 01:24:17;;;;;;;18.40;10.30;;;7.50;99.90;;;;;;5049356;28;20407;-76
2023/12/13 01:26:43;;;;;;;23.58;11.50;;;7.40;99.90;;;;;;5047693;28;20049;-76
2023/12/13 01:29:08;;;;;;;19.15;11.13;;;7.50;99.90;;;;;;5053245;28;20037;-76
2023/12/13 01:31:37;;;;;;;21.95;11.90;;;7.50;99.90;;;;;;5052187;28;20110;-76
2023/12/13 01:34:06;;;;;;;20.98;11.15;;;7.50;99.90;;;;;;5052192;28;20408;-76
2023/12/13 01:36:32;;;;;;;21.23;11.73;;;7.40;99.90;;;;;;5052989;28;20122;-76
2023/12/13 01:38:57;;;;;;;21.60;12.23;;;7.40;99.90;;;;;;5053445;28;20476;-76
2023/12/13 01:41:23;;;;;;;23.80;13.02;;;7.40;99.90;;;;;;5053494;28;20049;-76
2023/12/13 01:43:49;;;;;;;26.77;13.27;;;7.50;99.90;;;;;;5051923;28;20083;-76
2023/12/13 01:46:16;;;;;;;23.27;13.20;;;7.40;99.90;;;;;;5053212;28;20770;-76
2023/12/13 01:48:44;;;;;;;26.90;14.00;;;7.40;99.90;;;;;;5053162;28;20053;-76
2023/12/13 01:51:11;;;;;;;25.77;14.38;;;7.40;99.90;;;;;;5051435;28;20047;-78
2023/12/13 01:53:38;;;;;;;26.80;13.90;;;7.40;99.90;;;;;;5053352;28;20049;-82
2023/12/13 01:56:05;;;;;;;27.50;13.98;;;7.40;99.90;;;;;;5053152;28;20053;-79
2023/12/13 01:58:32;;;;;;;27.65;14.50;;;7.50;99.90;;;;;;5053432;28;20045;-89
2023/12/13 02:00:57;;;;;;;27.90;14.30;;;7.60;99.90;;;;;;5053299;28;20048;-80
2023/12/13 02:03:25;;;;;;;28.80;15.73;;;7.40;99.90;;;;;;5053670;28;20037;-83
2023/12/13 02:05:51;;;;;;;26.98;14.52;;;7.50;99.90;;;;;;5053800;28;20048;-80
2023/12/13 02:08:17;;;;;;;26.85;15.05;;;7.40;99.90;;;;;;5043358;28;20056;-82
2023/12/13 02:10:43;;;;;;;34.13;16.40;;;7.60;99.90;;;;;;5045387;28;20041;-80
2023/12/13 02:13:09;;;;;;;27.65;14.82;;;7.60;99.90;;;;;;5051399;28;20468;-87
2023/12/13 02:15:35;;;;;;;30.75;15.93;;;7.50;99.90;;;;;;5051520;28;20514;-86
2023/12/13 02:18:02;;;;;;;33.95;17.10;;;7.40;99.90;;;;;;5053509;28;20045;-77
2023/12/13 02:20:27;;;;;;;31.30;16.52;;;7.60;99.90;;;;;;5051799;28;20040;-85
2023/12/13 02:22:53;;;;;;;32.42;17.08;;;7.80;99.90;;;;;;5052743;28;20048;-85
2023/12/13 02:25:52;;;;;;;32.40;17.23;;;7.50;99.90;;;;;;5053357;28;20048;-86
2023/12/13 02:28:18;;;;;;;37.42;17.63;;;7.40;99.90;;;;;;5051025;28;20060;-81
2023/12/13 02:30:46;;;;;;;34.05;17.05;;;7.40;99.90;;;;;;5052987;28;20045;-83
2023/12/13 02:33:12;;;;;;;35.53;18.02;;;7.50;99.90;;;;;;5050114;28;20120;-89
2023/12/13 02:35:37;;;;;;;40.00;19.20;;;7.40;99.90;;;;;;5052656;28;20175;-85
2023/12/13 02:38:03;;;;;;;35.28;18.45;;;7.40;99.90;;;;;;5052658;28;20151;-90
2023/12/13 02:40:28;;;;;;;36.45;20.17;;;7.50;99.90;;;;;;5042181;28;20072;-88
2023/12/13 02:42:55;;;;;;;38.55;20.20;;;7.50;99.90;;;;;;5053258;28;20506;-81
2023/12/13 02:45:20;;;;;;;40.92;19.85;;;7.60;99.90;;;;;;5053182;28;20049;-78
2023/12/13 02:47:49;;;;;;;40.58;19.55;;;7.80;99.90;;;;;;5052770;28;20179;-79
2023/12/13 02:50:15;;;;;;;42.83;20.05;;;7.80;99.90;;;;;;5053032;28;20453;-85
2023/12/13 02:52:41;;;;;;;37.10;19.58;;;7.80;99.90;;;;;;5052538;28;20054;-81
2023/12/13 02:55:11;;;;;;;39.15;19.38;;;7.80;99.90;;;;;;5051247;28;20048;-82
2023/12/13 02:57:37;;;;;;;36.60;19.92;;;7.60;99.90;;;;;;5052758;28;20052;-81
2023/12/13 03:00:06;;;;;;;38.65;19.42;;;7.50;99.90;;;;;;5049554;28;20458;-78
2023/12/13 03:02:32;;;;;;;43.35;20.00;;;7.50;99.90;;;;;;5049789;28;20044;-82
2023/12/13 03:05:00;;;;;;;34.35;18.20;;;7.50;99.90;;;;;;5050207;28;20032;-77
2023/12/13 03:07:27;;;;;;;35.10;18.77;;;7.50;99.90;;;;;;5047699;28;20117;-79
2023/12/13 03:09:53;;;;;;;39.58;19.17;;;7.60;99.90;;;;;;5049549;28;20036;-76
2023/12/13 03:12:18;;;;;;;40.97;19.42;;;7.60;99.90;;;;;;5049947;28;20486;-76
2023/12/13 03:14:44;;;;;;;34.63;17.55;;;7.60;99.90;;;;;;5051153;28;20047;-76
2023/12/13 03:17:09;;;;;;;31.38;17.38;;;7.90;99.90;;;;;;5042702;28;20472;-75
2023/12/13 03:19:35;;;;;;;37.55;17.50;;;7.70;99.90;;;;;;5051552;28;20059;-75
2023/12/13 03:22:02;;;;;;;29.00;16.38;;;7.60;99.90;;;;;;5051329;28;20033;-75
2023/12/13 03:24:28;;;;;;;35.65;17.50;;;7.50;99.90;;;;;;5049839;28;20502;-76
2023/12/13 03:26:54;;;;;;;30.15;17.15;;;7.50;99.90;;;;;;5050874;28;20078;-76
2023/12/13 03:29:19;;;;;;;33.30;18.38;;;7.50;99.90;;;;;;5049776;28;20754;-75
2023/12/13 03:31:45;;;;;;;34.00;17.48;;;7.70;99.90;;;;;;5049807;28;20102;-77
2023/12/13 03:34:11;;;;;;;30.42;16.67;;;7.50;99.90;;;;;;5048901;28;20063;-74
2023/12/13 03:36:36;;;;;;;32.00;17.65;;;7.60;99.90;;;;;;5042594;28;20395;-76
2023/12/13 03:39:02;;;;;;;31.08;16.48;;;7.60;99.90;;;;;;5051087;28;20072;-76
2023/12/13 03:41:28;;;;;;;31.38;16.95;;;7.50;99.90;;;;;;5050366;28;20405;-75
2023/12/13 03:43:54;;;;;;;32.05;16.92;;;7.60;99.90;;;;;;5051148;28;20040;-76
2023/12/13 03:46:21;;;;;;;32.17;17.40;;;7.50;99.90;;;;;;5051068;28;20069;-75
2023/12/13 03:48:46;;;;;;;31.25;16.65;;;7.50;99.90;;;;;;5049170;28;20056;-80
2023/12/13 03:51:12;;;;;;;30.55;17.35;;;7.50;99.90;;;;;;5050682;28;20387;-77
2023/12/13 03:53:39;;;;;;;29.27;16.23;;;7.90;99.90;;;;;;5050506;28;20056;-76
2023/12/13 03:56:05;;;;;;;31.27;17.52;;;7.60;99.90;;;;;;5050632;28;20056;-75
2023/12/13 03:58:31;;;;;;;32.67;16.27;;;7.60;99.90;;;;;;5050016;28;20506;-77
2023/12/13 04:00:59;;;;;;;34.70;17.85;;;7.70;99.90;;;;;;5050246;28;20041;-75
2023/12/13 04:03:24;;;;;;;33.97;16.85;;;7.60;99.90;;;;;;5050613;28;20097;-76
2023/12/13 04:05:50;;;;;;;32.97;16.27;;;7.50;99.90;;;;;;5050114;28;20051;-75
2023/12/13 04:08:16;;;;;;;30.10;15.90;;;7.60;99.90;;;;;;5043744;28;20065;-76
2023/12/13 04:10:41;;;;;;;29.38;16.63;;;7.60;99.90;;;;;;5047377;28;20056;-75
2023/12/13 04:13:07;;;;;;;30.92;17.17;;;7.70;99.90;;;;;;5049548;28;20070;-76
2023/12/13 04:15:33;;;;;;;28.95;17.33;;;7.70;99.90;;;;;;5044996;28;20047;-76
2023/12/13 04:17:58;;;;;;;31.15;16.48;;;7.60;99.90;;;;;;5046657;28;20404;-76
2023/12/13 04:20:24;;;;;;;31.25;17.27;;;7.70;99.90;;;;;;5048927;28;20511;-76
2023/12/13 04:22:49;;;;;;;28.73;16.15;;;7.60;99.90;;;;;;5048908;28;20037;-76
2023/12/13 04:25:15;;;;;;;32.45;16.73;;;8.00;99.90;;;;;;5045307;28;20041;-76
2023/12/13 04:27:41;;;;;;;30.73;16.15;;;7.60;99.90;;;;;;5044316;28;20045;-76
2023/12/13 04:30:08;;;;;;;23.48;15.18;;;7.60;99.90;;;;;;5039778;28;20056;-79
2023/12/13 04:32:34;;;;;;;29.15;16.15;;;7.60;99.90;;;;;;5050271;28;20041;-77
2023/12/13 04:34:59;;;;;;;28.50;15.52;;;7.80;99.90;;;;;;5050083;28;20037;-76
2023/12/13 04:37:25;;;;;;;24.40;15.45;;;7.60;99.90;;;;;;5048095;28;20499;-75
2023/12/13 04:39:50;;;;;;;26.50;15.00;;;7.50;99.90;;;;;;5041571;28;20029;-76
2023/12/13 04:42:16;;;;;;;28.63;16.73;;;7.70;99.90;;;;;;5041715;28;20469;-76
2023/12/13 04:44:42;;;;;;;30.30;16.58;;;7.60;99.90;;;;;;5043892;28;20040;-76
2023/12/13 04:47:08;;;;;;;25.17;15.30;;;7.60;99.90;;;;;;5045366;28;20045;-76
2023/12/13 04:49:34;;;;;;;29.60;16.48;;;7.60;99.90;;;;;;5049845;28;20094;-76
2023/12/13 04:51:59;;;;;;;29.55;16.45;;;7.60;99.90;;;;;;5048202;28;20754;-76
2023/12/13 04:54:25;;;;;;;24.40;15.18;;;7.60;99.90;;;;;;5049195;28;20044;-76
2023/12/13 04:56:51;;;;;;;26.20;15.80;;;7.60;99.90;;;;;;5049279;28;20080;-76
2023/12/13 04:59:16;;;;;;;28.08;16.13;;;7.70;99.90;;;;;;5049220;28;20081;-76
2023/12/13 05:01:42;;;;;;;26.52;15.32;;;7.60;99.90;;;;;;5049204;28;20498;-76
2023/12/13 05:04:07;;;;;;;29.42;16.63;;;7.60;99.90;;;;;;5049659;28;20080;-76
2023/12/13 05:06:33;;;;;;;23.40;15.23;;;7.70;99.90;;;;;;5048315;28;20049;-76
2023/12/13 05:08:59;;;;;;;30.55;17.10;;;7.80;99.90;;;;;;5047433;28;20585;-76
2023/12/13 05:11:24;;;;;;;31.98;16.52;;;8.20;99.90;;;;;;5043177;28;20045;-78
2023/12/13 05:13:50;;;;;;;29.95;17.30;;;8.00;99.90;;;;;;5040461;28;20053;-77
2023/12/13 05:16:16;;;;;;;32.08;16.77;;;7.60;99.90;;;;;;5048824;28;20449;-77
2023/12/13 05:18:41;;;;;;;27.25;16.70;;;7.70;99.90;;;;;;5049453;28;20060;-77
2023/12/13 05:21:07;;;;;;;28.63;16.63;;;7.60;99.90;;;;;;5049557;28;20099;-77
2023/12/13 05:23:33;;;;;;;35.63;17.13;;;7.70;99.90;;;;;;5049366;28;20037;-76
2023/12/13 05:25:59;;;;;;;28.95;15.90;;;7.70;99.90;;;;;;5049112;28;20072;-76
2023/12/13 05:28:24;;;;;;;30.92;16.60;;;7.80;99.90;;;;;;5049393;28;20076;-76
2023/12/13 05:30:50;;;;;;;26.42;17.40;;;7.60;99.90;;;;;;5048803;28;20049;-76
2023/12/13 05:33:16;;;;;;;26.83;16.67;;;7.60;99.90;;;;;;5039596;28;20053;-76
2023/12/13 05:35:41;;;;;;;31.27;17.00;;;7.60;99.90;;;;;;5049265;28;20100;-76
2023/12/13 05:38:07;;;;;;;32.00;16.23;;;7.60;99.90;;;;;;5041134;28;20099;-77
2023/12/13 05:40:33;;;;;;;26.17;16.70;;;7.70;99.90;;;;;;5048681;28;20506;-77
2023/12/13 05:42:59;;;;;;;32.83;17.38;;;7.60;99.90;;;;;;5047692;28;20079;-76
2023/12/13 05:45:24;;;;;;;27.13;15.88;;;7.60;99.90;;;;;;5040861;28;20060;-76
2023/12/13 05:47:50;;;;;;;26.48;15.98;;;7.70;99.90;;;;;;5040675;28;20037;-76
2023/12/13 05:50:16;;;;;;;27.55;17.63;;;7.60;99.90;;;;;;5048163;28;20190;-76
2023/12/13 05:52:42;;;;;;;30.45;16.52;;;7.60;99.90;;;;;;5037700;28;20045;-77
2023/12/13 05:55:08;;;;;;;26.70;16.48;;;7.60;99.90;;;;;;5043235;28;20499;-76
2023/12/13 05:57:33;;;;;;;30.15;16.90;;;7.60;99.90;;;;;;5048765;28;20060;-77
2023/12/13 05:59:59;;;;;;;29.98;17.05;;;7.60;99.90;;;;;;5048950;28;20052;-78
2023/12/13 06:02:25;;;;;;;28.10;16.92;;;7.70;99.90;;;;;;5041262;28;20087;-76
2023/12/13 06:04:54;;;;;;;30.05;17.67;;;7.80;99.90;;;;;;5040253;28;20388;-77
2023/12/13 06:07:20;;;;;;;30.00;18.08;;;8.00;99.90;;;;;;5048686;28;20598;-77
2023/12/13 06:09:46;;;;;;;25.17;16.73;;;7.70;99.90;;;;;;5045615;28;20055;-76
2023/12/13 06:12:13;;;;;;;27.58;16.90;;;7.80;99.90;;;;;;5048781;28;20045;-75
2023/12/13 06:14:38;;;;;;;32.20;17.48;;;7.60;99.90;;;;;;5046294;28;20138;-76
2023/12/13 06:17:04;;;;;;;31.55;17.17;;;7.60;99.90;;;;;;5052213;28;20102;-76
2023/12/13 06:19:32;;;;;;;31.52;17.08;;;7.70;99.90;;;;;;5050698;28;20126;-77
2023/12/13 06:21:57;;;;;;;33.05;17.98;;;7.60;99.90;;;;;;5050795;28;20051;-77
2023/12/13 06:24:23;;;;;;;32.35;17.95;;;7.70;99.90;;;;;;5051784;28;20041;-76
2023/12/13 06:26:49;;;;;;;38.80;16.75;;;7.70;99.90;;;;;;5049485;28;20363;-77
2023/12/13 06:29:14;;;;;;;25.38;16.98;;;7.70;99.90;;;;;;5052059;28;20428;-76
2023/12/13 06:31:40;;;;;;;31.75;17.73;;;7.60;99.90;;;;;;5052132;28;20072;-77
2023/12/13 06:34:06;;;;;;;25.25;17.02;;;7.60;99.90;;;;;;5051948;28;20576;-77
2023/12/13 06:36:31;;;;;;;28.50;16.88;;;8.00;99.90;;;;;;5052151;28;20048;-76
2023/12/13 06:38:57;;;;;;;29.42;17.02;;;7.70;99.90;;;;;;5045187;28;20051;-76
2023/12/13 06:41:23;;;;;;;26.48;16.65;;;7.60;99.90;;;;;;5050539;28;20047;-76
2023/12/13 06:43:48;;;;;;;36.05;18.58;;;7.70;99.90;;;;;;5046962;28;20045;-76
2023/12/13 06:46:14;;;;;;;30.08;17.75;;;7.60;99.90;;;;;;5048680;28;20098;-77
2023/12/13 06:48:40;;;;;;;27.02;16.92;;;7.60;99.90;;;;;;5051766;28;20053;-76
2023/12/13 06:51:07;;;;;;;31.27;17.67;;;7.70;99.90;;;;;;5050107;28;20052;-77
2023/12/13 06:53:37;;;;;;;27.67;17.27;;;7.60;99.90;;;;;;5051780;28;20526;-77
2023/12/13 06:56:06;;;;;;;35.97;19.17;;;7.60;99.90;;;;;;5051938;28;20053;-77
2023/12/13 06:58:34;;;;;;;30.25;17.98;;;7.70;99.90;;;;;;5051726;28;20045;-76
2023/12/13 07:01:00;;;;;;;28.42;17.33;;;7.60;99.90;;;;;;5047067;28;20112;-77
2023/12/13 07:03:25;;;;;;;30.30;18.20;;;7.70;99.90;;;;;;5047742;28;20128;-77
2023/12/13 07:05:53;;;;;;;34.45;18.13;;;7.60;99.90;;;;;;5051388;28;20044;-76
2023/12/13 07:08:18;;;;;;;35.25;18.25;;;7.70;99.90;;;;;;5051579;28;20564;-77
2023/12/13 07:10:44;;;;;;;36.50;17.77;;;7.80;99.90;;;;;;5051499;28;20037;-77
2023/12/13 07:13:10;;;;;;;35.58;18.80;;;7.60;99.90;;;;;;5051736;28;20052;-77
2023/12/13 07:15:37;;;;;;;36.58;18.98;;;7.50;99.90;;;;;;5049872;28;20053;-76
2023/12/13 07:18:02;;;;;;;33.92;19.75;;;7.70;99.90;;;;;;5050991;28;20076;-77
2023/12/13 07:20:30;;;;;;;34.42;19.30;;;7.60;99.90;;;;;;5051387;28;20060;-76
2023/12/13 07:22:56;;;;;;;41.05;19.35;;;7.70;99.90;;;;;;5051130;28;20650;-76
2023/12/13 07:25:22;;;;;;;33.80;18.67;;;7.60;99.90;;;;;;5051099;28;20037;-76
2023/12/13 07:27:48;;;;;;;34.53;18.60;;;7.70;99.90;;;;;;5051322;28;20102;-76
2023/12/13 07:30:14;;;;;;;36.67;19.85;;;7.60;99.90;;;;;;5050798;28;20048;-79
2023/12/13 07:32:44;;;;;;;30.98;19.80;;;7.60;99.90;;;;;;5051183;28;20048;-76
2023/12/13 07:35:12;;;;;;;47.17;20.20;;;7.80;99.90;;;;;;5050948;28;20571;-76
2023/12/13 07:37:38;;;;;;;37.70;20.08;;;7.70;99.90;;;;;;5050681;28;20120;-76
2023/12/13 07:40:06;;;;;;;33.38;19.88;;;7.60;99.90;;;;;;5051161;28;20128;-79
2023/12/13 07:42:32;;;;;;;37.63;20.80;;;7.60;99.90;;;;;;5050746;28;20041;-76
2023/12/13 07:44:58;;;;;;;34.10;19.92;;;7.70;99.90;;;;;;5041130;28;20040;-76
2023/12/13 07:47:25;;;;;;;31.95;19.15;;;7.80;99.90;;;;;;5050741;28;20728;-78
2023/12/13 07:49:50;;;;;;;34.63;19.80;;;7.60;99.90;;;;;;5050710;28;20052;-77
2023/12/13 07:52:16;;;;;;;33.28;19.85;;;7.70;99.90;;;;;;5050558;28;20040;-81
2023/12/13 07:54:44;;;;;;;40.67;21.42;;;7.70;99.90;;;;;;5032909;28;20538;-76
2023/12/13 07:57:10;;;;;;;34.55;20.95;;;7.60;99.90;;;;;;5050771;28;20041;-77
2023/12/13 07:59:36;;;;;;;33.83;20.10;;;7.60;99.90;;;;;;5050583;28;20056;-80
2023/12/13 08:02:01;;;;;;;34.53;20.20;;;7.80;99.90;;;;;;5048827;28;20135;-81
2023/12/13 08:04:27;;;;;;;37.97;20.98;;;7.60;99.90;;;;;;5050953;28;20094;-81
2023/12/13 08:07:58;;;;;;;39.45;22.30;;;7.60;99.90;;;;;;5536978;22;20056;-88
2023/12/13 08:13:26;;;;;;;36.53;20.77;;;7.70;99.90;;;;;;4985400;23;20053;-81
2023/12/13 08:15:52;;;;;;;37.10;20.63;;;7.70;99.90;;;;;;4913531;29;20052;-78
2023/12/13 08:18:17;;;;;;;39.97;21.65;;;8.20;99.90;;;;;;4913563;29;20048;-78
2023/12/13 08:23:57;;;;;;;43.42;21.33;;;7.80;99.90;;;;;;4911898;23;20511;-76
2023/12/13 08:26:25;;;;;;;43.63;22.70;;;8.00;99.90;;;;;;4910215;29;20262;-78
2023/12/13 08:28:51;;;;;;;39.00;21.55;;;7.60;99.90;;;;;;4924909;29;20179;-75
2023/12/13 08:31:18;;;;;;;40.83;22.20;;;7.70;99.90;;;;;;4913588;29;20048;-77
2023/12/13 08:33:44;;;;;;;35.72;22.10;;;8.10;99.90;;;;;;4902620;29;20044;-75
2023/12/13 08:36:14;;;;;;;44.95;21.90;;;7.60;99.90;;;;;;4909669;29;20044;-75
2023/12/13 08:38:40;;;;;;;39.50;21.60;;;7.80;99.90;;;;;;4928322;23;20391;-77
2023/12/13 08:41:08;;;;;;;43.25;22.13;;;7.70;99.90;;;;;;4932226;29;20060;-77
2023/12/13 08:43:34;;;;;;;34.83;21.52;;;7.70;99.90;;;;;;4930742;29;20546;-76
2023/12/13 08:45:59;;;;;;;47.03;24.65;;;8.10;99.90;;;;;;4932896;29;20197;-77
2023/12/13 08:48:35;;;;;;;41.45;23.95;;;8.00;99.90;;;;;;4929662;29;20074;-78
2023/12/13 08:51:02;;;;;;;43.78;24.38;;;8.50;99.90;;;;;;4929520;29;20545;-77
2023/12/13 08:53:28;;;;;;;44.75;24.88;;;7.70;99.90;;;;;;4932769;29;20048;-77
2023/12/13 08:55:54;;;;;;;51.15;25.10;;;7.80;99.90;;;;;;4930138;29;20521;-78
2023/12/13 08:58:20;;;;;;;47.35;25.95;;;7.70;99.90;;;;;;4927286;29;20052;-77
2023/12/13 09:00:46;;;;;;;45.20;25.00;;;8.10;99.90;;;;;;4931845;29;20562;-77
2023/12/13 09:03:12;;;;;;;49.95;26.60;;;8.30;99.90;;;;;;4931290;29;20063;-77
2023/12/13 09:05:38;;;;;;;42.15;24.23;;;7.70;99.90;;;;;;4929145;29;20095;-78
2023/12/13 09:08:04;;;;;;;64.00;27.13;;;7.80;99.90;;;;;;4932466;29;20055;-79
2023/12/13 09:10:34;;;;;;;48.60;25.13;;;7.80;99.90;;;;;;4936412;29;20097;-76
2023/12/13 09:13:03;;;;;;;43.60;24.48;;;7.80;99.90;;;;;;4928971;28;20059;-77
2023/12/13 09:15:31;;;;;;;52.80;26.92;;;7.90;99.90;;;;;;4930105;29;20046;-79
2023/12/13 09:17:56;;;;;;;50.03;25.40;;;8.20;99.90;;;;;;4932610;29;20043;-77
2023/12/13 09:20:22;;;;;;;47.75;24.45;;;7.90;99.90;;;;;;4930495;29;20406;-78
2023/12/13 09:22:48;;;;;;;52.22;25.00;;;7.90;99.90;;;;;;4932313;29;20040;-76
2023/12/13 09:25:16;;;;;;;46.28;25.58;;;8.00;99.90;;;;;;4932191;29;20051;-77
2023/12/13 09:27:44;;;;;;;54.00;26.63;;;7.90;99.90;;;;;;4932006;29;20090;-76
2023/12/13 09:30:11;;;;;;;48.10;24.75;;;8.50;99.90;;;;;;4932219;29;20099;-75
2023/12/13 09:32:40;;;;;;;59.03;26.73;;;7.90;99.90;;;;;;4931988;29;20579;-75
2023/12/13 09:35:06;;;;;;;49.78;26.40;;;8.00;99.90;;;;;;4932019;29;20044;-75
2023/12/13 09:37:33;;;;;;;56.05;25.48;;;7.90;99.90;;;;;;4930435;29;20388;-77
2023/12/13 09:39:59;;;;;;;55.45;27.25;;;8.10;99.90;;;;;;4931234;29;20391;-76
2023/12/13 09:42:28;;;;;;;57.63;27.08;;;8.00;99.90;;;;;;4931886;29;20058;-77
2023/12/13 09:44:55;;;;;;;65.18;27.38;;;8.10;99.90;;;;;;4929859;29;20032;-78
2023/12/13 09:47:23;;;;;;;54.85;27.30;;;8.30;99.90;;;;;;4930388;29;20578;-76
2023/12/13 09:49:50;;;;;;;61.05;26.60;;;8.00;99.90;;;;;;4940602;29;20040;-77
2023/12/13 09:52:19;;;;;;;58.45;27.67;;;8.00;99.90;;;;;;4934573;29;20051;-77
2023/12/13 09:54:46;;;;;;;51.10;25.60;;;8.10;99.90;;;;;;4933302;29;20588;-76
2023/12/13 09:57:12;;;;;;;60.38;27.15;;;8.10;99.90;;;;;;4930372;29;20091;-77
2023/12/13 09:59:38;;;;;;;61.80;27.48;;;8.00;99.90;;;;;;4935242;29;20154;-77
2023/12/13 10:02:16;;;;;;;64.80;26.63;;;8.70;99.90;;;;;;4935985;29;20198;-77
2023/12/13 10:04:44;;;;;;;71.43;29.50;;;8.20;99.90;;;;;;4935221;29;20054;-77
2023/12/13 10:07:09;;;;;;;60.83;27.85;;;8.80;99.90;;;;;;4934309;29;20566;-78
2023/12/13 10:12:10;;;;;;;62.83;27.90;;;8.30;99.90;;;;;;4920423;23;20056;-77
2023/12/13 10:14:36;;;;;;;65.45;28.50;;;8.20;99.90;;;;;;4916296;29;20135;-75
2023/12/13 10:17:12;;;;;;;79.93;29.23;;;8.70;99.90;;;;;;4933968;23;20127;-77
2023/12/13 10:23:27;;;;;;;66.55;28.60;;;8.20;99.90;;;;;;4923076;23;20044;-77
2023/12/13 10:25:53;;;;;;;69.53;30.65;;;8.30;99.90;;;;;;4915633;29;20508;-77
2023/12/13 10:28:20;;;;;;;73.30;29.33;;;8.30;99.90;;;;;;4915750;29;20052;-78
2023/12/13 10:30:49;;;;;;;62.72;29.98;;;8.80;99.90;;;;;;4916090;29;20050;-76
2023/12/13 10:33:15;;;;;;;83.03;29.58;;;8.20;99.90;;;;;;4913886;29;20050;-82
2023/12/13 10:35:41;;;;;;;67.20;29.63;;;8.10;99.90;;;;;;4916125;29;20179;-81
2023/12/13 10:38:13;;;;;;;66.13;28.30;;;8.80;99.90;;;;;;4915579;29;20051;-76
2023/12/13 10:40:40;;;;;;;65.63;28.73;;;8.30;99.90;;;;;;4915414;29;20062;-79
2023/12/13 10:43:11;;;;;;;65.38;30.48;;;8.90;99.90;;;;;;4915946;29;20128;-76
2023/12/13 10:45:45;;;;;;;80.25;29.85;;;8.40;99.90;;;;;;4915275;29;20831;-79
2023/12/13 10:48:16;;;;;;;69.72;29.73;;;8.60;99.90;;;;;;4914909;29;20507;-76
2023/12/13 10:50:44;;;;;;;67.80;30.10;;;8.60;99.90;;;;;;4915960;29;20054;-77
2023/12/13 10:53:11;;;;;;;67.57;29.95;;;8.70;99.90;;;;;;4915691;29;20079;-77
2023/12/13 10:55:39;;;;;;;74.05;29.60;;;8.50;99.90;;;;;;4915190;29;20598;-82
2023/12/13 10:58:05;;;;;;;73.68;29.75;;;8.40;99.90;;;;;;4915328;29;20052;-78
2023/12/13 11:00:32;;;;;;;73.55;30.20;;;8.70;99.90;;;;;;4914263;29;20043;-77
2023/12/13 11:03:09;;;;;;;74.72;29.85;;;8.40;99.90;;;;;;4915415;29;20051;-78
2023/12/13 11:05:37;;;;;;;71.45;30.35;;;8.40;99.90;;;;;;4915775;29;20472;-77
2023/12/13 11:08:14;;;;;;;68.93;29.35;;;8.30;99.90;;;;;;4915366;29;20040;-78
2023/12/13 11:10:39;;;;;;;73.45;29.40;;;8.30;99.90;;;;;;4913905;29;20052;-79
2023/12/13 11:13:06;;;;;;;71.72;29.38;;;8.30;99.90;;;;;;4915224;29;20506;-78
2023/12/13 11:15:31;;;;;;;77.22;29.27;;;8.80;99.90;;;;;;4915332;29;20499;-77
2023/12/13 11:18:00;;;;;;;54.67;28.13;;;9.00;99.90;;;;;;4913244;29;20043;-77
2023/12/13 11:20:26;;;;;;;69.97;30.40;;;8.50;99.90;;;;;;4914813;29;20058;-77
2023/12/13 11:22:55;;;;;;;66.95;28.40;;;8.40;99.90;;;;;;4915221;29;20476;-77
2023/12/13 11:25:34;;;;;;;87.88;30.98;;;8.70;99.90;;;;;;4907922;29;20055;-77
2023/12/13 11:28:00;;;;;;;76.53;29.90;;;8.50;99.90;;;;;;4915098;29;20491;-77
2023/12/13 11:30:26;;;;;;;80.68;29.55;;;8.40;99.90;;;;;;4914029;29;20036;-77
2023/12/13 11:32:51;;;;;;;64.90;29.63;;;8.40;99.90;;;;;;4914714;29;20593;-78
2023/12/13 11:35:20;;;;;;;74.75;29.70;;;8.50;99.90;;;;;;4915011;29;20499;-77
2023/12/13 11:37:53;;;;;;;82.13;31.27;;;8.50;99.90;;;;;;4913799;29;20063;-77
2023/12/13 11:40:20;;;;;;;80.03;30.98;;;8.50;99.90;;;;;;4914929;29;20040;-78
2023/12/13 11:42:47;;;;;;;60.42;28.65;;;8.40;99.90;;;;;;4914927;29;20052;-77
2023/12/13 11:45:12;;;;;;;83.40;29.65;;;8.60;99.90;;;;;;4913674;29;20059;-77
2023/12/13 11:47:39;;;;;;;69.90;27.98;;;8.60;99.90;;;;;;4914326;29;20044;-77
2023/12/13 11:50:07;;;;;;;80.15;30.40;;;8.50;99.90;;;;;;4914852;29;20044;-77
2023/12/13 11:52:36;;;;;;;66.40;28.83;;;8.60;99.90;;;;;;4914645;29;20047;-77
2023/12/13 11:55:03;;;;;;;79.95;29.77;;;9.20;99.90;;;;;;4910210;29;20499;-77
2023/12/13 11:57:28;;;;;;;73.13;28.00;;;8.50;99.90;;;;;;4918770;29;20047;-77
2023/12/13 11:59:55;;;;;;;74.95;28.52;;;8.60;99.90;;;;;;4913146;29;20655;-77
2023/12/13 12:02:21;;;;;;;84.60;29.77;;;8.60;99.90;;;;;;4914456;29;20135;-77
2023/12/13 12:04:50;;;;;;;80.22;29.85;;;8.80;99.90;;;;;;4913693;29;20122;-76
2023/12/13 12:07:17;;;;;;;81.63;30.73;;;8.60;99.90;;;;;;4909243;29;20061;-76
2023/12/13 12:09:50;;;;;;;69.40;30.15;;;8.60;99.90;;;;;;4914415;29;20048;-76
2023/12/13 12:12:16;;;;;;;66.47;27.70;;;8.30;99.90;;;;;;4913556;29;20107;-81
2023/12/13 12:14:45;;;;;;;68.75;28.00;;;8.90;99.90;;;;;;4914618;29;20062;-78
2023/12/13 12:17:11;;;;;;;63.55;27.08;;;8.60;99.90;;;;;;4908116;29;20127;-77
2023/12/13 12:19:38;;;;;;;70.22;28.70;;;9.10;99.90;;;;;;4915042;29;20048;-77
2023/12/13 12:22:04;;;;;;;71.97;28.38;;;9.10;99.90;;;;;;4913460;29;20060;-77
2023/12/13 12:24:30;;;;;;;54.63;26.02;;;8.70;99.90;;;;;;4913555;29;20048;-76
2023/12/13 12:27:07;;;;;;;50.72;23.98;;;8.70;99.90;;;;;;4914020;29;20042;-77
2023/12/13 12:29:33;;;;;;;50.70;23.92;;;9.20;99.90;;;;;;4907403;29;20044;-78
2023/12/13 12:31:58;;;;;;;50.17;25.42;;;8.70;99.90;;;;;;4912616;29;20051;-77
2023/12/13 12:34:25;;;;;;;58.83;25.40;;;8.60;99.90;;;;;;4911297;29;20054;-77
2023/12/13 12:36:50;;;;;;;50.33;24.52;;;8.60;99.90;;;;;;4914059;29;20075;-77
2023/12/13 12:39:16;;;;;;;53.08;24.75;;;8.60;99.90;;;;;;4909489;29;20084;-78
2023/12/13 12:41:42;;;;;;;51.55;24.52;;;8.90;99.90;;;;;;4913292;29;20043;-79
2023/12/13 12:44:08;;;;;;;53.22;24.58;;;8.80;99.90;;;;;;4910407;29;20047;-78
2023/12/13 12:46:34;;;;;;;58.78;25.08;;;9.00;99.90;;;;;;4912896;29;20143;-78
2023/12/13 12:48:59;;;;;;;52.08;24.02;;;9.00;99.90;;;;;;4914138;29;20135;-78